Time;durP1;ratioP1;P1;durP2;ratioP2;P2;SDS_P1;SDS_P2;PMS_P1;PMS_P2;Temp;Humidity;BMP_temperature;BMP_pressure;BME280_temperature;BME280_humidity;BME280_pressure;Samples;Min_cycle;Max_cycle;Signal;HPM_P1;HPM_P2
2022/11/17 00:01:58;;;;;;;1999.90;999.90;;;15.30;99.90;;;;;;5083177;28;20411;-78
2022/11/17 00:04:27;;;;;;;1999.90;999.90;;;14.20;99.90;;;;;;5076340;28;20067;-79
2022/11/17 00:06:53;;;;;;;1999.90;999.90;;;13.50;99.90;;;;;;5075898;28;20111;-80
2022/11/17 00:09:19;;;;;;;1999.90;999.90;;;13.10;99.90;;;;;;5075150;28;20112;-80
2022/11/17 00:14:35;;;;;;;1999.90;999.90;;;13.00;99.90;;;;;;5055436;28;20031;-83
2022/11/17 00:17:04;;;;;;;1999.90;999.90;;;13.00;99.90;;;;;;5062934;28;20078;-81
2022/11/17 00:22:14;;;;;;;1999.90;999.90;;;13.10;99.90;;;;;;5075328;28;20439;-72
2022/11/17 00:24:40;;;;;;;1999.90;999.90;;;13.20;99.90;;;;;;5074725;28;20021;-72
2022/11/17 00:27:05;;;;;;;1999.90;999.90;;;13.30;99.90;;;;;;5075032;28;20029;-79
2022/11/17 00:29:32;;;;;;;1999.90;999.90;;;13.70;99.90;;;;;;5075351;28;20020;-80
2022/11/17 00:34:42;;;;;;;1999.90;999.90;;;14.00;99.90;;;;;;5075546;28;20035;-83
2022/11/17 00:37:09;;;;;;;1999.90;999.90;;;14.20;99.90;;;;;;5075126;28;20475;-82
2022/11/17 00:39:35;;;;;;;1999.90;999.90;;;14.40;99.90;;;;;;5074575;28;20032;-82
2022/11/17 00:42:00;;;;;;;1999.90;999.90;;;14.50;99.90;;;;;;5075016;28;20028;-80
2022/11/17 00:44:26;;;;;;;1999.90;999.90;;;14.80;99.90;;;;;;5083122;28;20047;-74
2022/11/17 00:46:52;;;;;;;1999.90;999.90;;;14.80;99.90;;;;;;5093330;28;20028;-80
2022/11/17 00:49:20;;;;;;;1999.90;999.90;;;14.80;99.90;;;;;;5094561;28;20020;-73
2022/11/17 00:51:46;;;;;;;1999.90;999.90;;;14.90;99.90;;;;;;5127966;27;20398;-81
2022/11/17 00:54:12;;;;;;;1999.90;999.90;;;14.80;99.90;;;;;;5094842;28;20036;-74
2022/11/17 00:56:38;;;;;;;1999.90;999.90;;;14.80;99.90;;;;;;5094835;28;20403;-80
2022/11/17 00:59:04;;;;;;;1999.90;999.90;;;14.80;99.90;;;;;;5094764;28;20020;-74
2022/11/17 01:01:30;;;;;;;1999.90;999.90;;;14.80;99.90;;;;;;5085115;28;20047;-82
2022/11/17 01:04:04;;;;;;;1999.90;999.90;;;14.90;99.90;;;;;;5073822;28;20047;-80
2022/11/17 01:06:31;;;;;;;1999.90;999.90;;;14.90;99.90;;;;;;5074558;28;20023;-81
2022/11/17 01:08:59;;;;;;;1999.90;999.90;;;14.80;99.90;;;;;;5073925;28;20021;-81
2022/11/17 01:11:25;;;;;;;1999.90;999.90;;;14.80;99.90;;;;;;5069428;28;20071;-80
2022/11/17 01:13:54;;;;;;;1999.90;999.90;;;14.90;99.90;;;;;;5052850;28;20021;-74
2022/11/17 01:16:20;;;;;;;1999.90;999.90;;;14.90;99.90;;;;;;5056667;28;20430;-82
2022/11/17 01:18:47;;;;;;;1999.90;999.90;;;15.00;99.90;;;;;;5074254;28;20025;-74
2022/11/17 01:21:15;;;;;;;1999.90;999.90;;;15.00;99.90;;;;;;5074044;28;20508;-81
2022/11/17 01:23:42;;;;;;;1999.90;999.90;;;15.00;99.90;;;;;;5073437;28;20038;-73
2022/11/17 01:26:20;;;;;;;1999.90;999.90;;;15.00;99.90;;;;;;5074015;28;20108;-80
2022/11/17 01:28:46;;;;;;;1999.90;999.90;;;14.90;99.90;;;;;;5072779;28;20024;-73
2022/11/17 01:31:20;;;;;;;1999.90;999.90;;;14.80;99.90;;;;;;5073997;28;20028;-79
2022/11/17 01:33:47;;;;;;;1999.90;999.90;;;14.70;99.90;;;;;;5073844;28;20032;-82
2022/11/17 01:36:22;;;;;;;1999.90;999.90;;;14.10;99.90;;;;;;5073946;28;20033;-82
2022/11/17 01:38:47;;;;;;;1999.90;999.90;;;13.60;99.90;;;;;;5073469;28;20033;-80
2022/11/17 01:41:19;;;;;;;1999.90;999.90;;;13.30;99.90;;;;;;5073651;28;20036;-82
2022/11/17 01:43:47;;;;;;;1999.90;999.90;;;12.90;99.90;;;;;;5074705;28;20499;-85
2022/11/17 01:46:36;;;;;;;1999.90;999.90;;;12.80;99.90;;;;;;5093986;28;20081;-83
2022/11/17 01:49:10;;;;;;;1999.90;999.90;;;12.90;99.90;;;;;;5093759;28;20054;-83
2022/11/17 01:51:38;;;;;;;1999.90;999.90;;;12.90;99.90;;;;;;5094069;28;20084;-74
2022/11/17 01:54:04;;;;;;;1999.90;999.90;;;13.00;99.90;;;;;;5093645;28;20036;-81
2022/11/17 01:56:38;;;;;;;1999.90;999.90;;;13.20;99.90;;;;;;5095643;28;20043;-80
2022/11/17 01:59:15;;;;;;;1999.90;999.90;;;13.40;99.90;;;;;;5094631;28;20031;-83
2022/11/17 02:01:54;;;;;;;1999.90;999.90;;;13.80;99.90;;;;;;5083388;28;20039;-82
2022/11/17 02:04:33;;;;;;;1999.90;999.90;;;14.10;99.90;;;;;;5073669;28;20043;-80
2022/11/17 02:07:13;;;;;;;1999.90;999.90;;;14.30;99.90;;;;;;5072449;28;20025;-72
2022/11/17 02:09:39;;;;;;;1999.90;999.90;;;14.30;99.90;;;;;;5073073;28;20028;-79
2022/11/17 02:12:08;;;;;;;1999.90;999.90;;;14.30;99.90;;;;;;5053302;28;20017;-79
2022/11/17 02:14:35;;;;;;;1999.90;999.90;;;14.30;99.90;;;;;;5053218;28;20040;-80
2022/11/17 02:17:02;;;;;;;1999.90;999.90;;;14.40;99.90;;;;;;5058750;28;20191;-74
2022/11/17 02:19:32;;;;;;;1999.90;999.90;;;14.50;99.90;;;;;;5073364;28;20032;-80
2022/11/17 02:22:24;;;;;;;1999.90;999.90;;;14.60;99.90;;;;;;5072628;28;20020;-79
2022/11/17 02:25:19;;;;;;;1999.90;999.90;;;14.60;99.90;;;;;;5072651;28;20035;-79
2022/11/17 02:28:37;;;;;;;1999.90;999.90;;;14.60;99.90;;;;;;5000788;28;20066;-84
2022/11/17 02:31:11;;;;;;;1999.90;999.90;;;14.80;99.90;;;;;;4975093;28;20033;-77
2022/11/17 02:33:40;;;;;;;1999.90;999.90;;;14.80;99.90;;;;;;4991286;28;20405;-81
2022/11/17 02:37:03;;;;;;;1999.90;999.90;;;14.70;99.90;;;;;;4991293;28;20070;-83
2022/11/17 02:39:29;;;;;;;1999.90;999.90;;;14.70;99.90;;;;;;4914931;29;20036;-81
2022/11/17 02:42:03;;;;;;;1999.90;999.90;;;14.80;99.90;;;;;;4987853;28;20049;-80
2022/11/17 02:44:46;;;;;;;1999.90;999.90;;;14.80;99.90;;;;;;4999329;28;20594;-74
2022/11/17 02:47:21;;;;;;;1999.90;999.90;;;14.70;99.90;;;;;;5003679;28;20022;-81
2022/11/17 02:49:55;;;;;;;1999.90;999.90;;;14.80;99.90;;;;;;4990823;28;20022;-81
2022/11/17 02:52:22;;;;;;;1999.90;999.90;;;14.70;99.90;;;;;;4990984;28;20045;-74
2022/11/17 02:54:48;;;;;;;1999.90;999.90;;;14.80;99.90;;;;;;4990614;28;20039;-74
2022/11/17 02:57:34;;;;;;;1999.90;999.90;;;14.80;99.90;;;;;;4991029;28;20124;-74
2022/11/17 03:00:04;;;;;;;1999.90;999.90;;;14.80;99.90;;;;;;4990970;28;20038;-82
2022/11/17 03:02:44;;;;;;;1999.90;999.90;;;14.80;99.90;;;;;;4990726;28;20050;-80
2022/11/17 03:05:28;;;;;;;1999.90;999.90;;;14.70;99.90;;;;;;5035930;28;20082;-82
2022/11/17 03:08:24;;;;;;;1999.90;999.90;;;14.70;99.90;;;;;;5072275;28;20428;-81
2022/11/17 03:11:02;;;;;;;1999.90;999.90;;;14.80;99.90;;;;;;5064656;28;20021;-82
2022/11/17 03:13:43;;;;;;;1999.90;999.90;;;14.80;99.90;;;;;;5052103;28;20024;-75
2022/11/17 03:16:15;;;;;;;1999.90;999.90;;;14.80;99.90;;;;;;5053223;28;20029;-81
2022/11/17 03:18:49;;;;;;;1999.90;999.90;;;14.80;99.90;;;;;;5070917;28;20399;-81
2022/11/17 03:21:40;;;;;;;1999.90;999.90;;;14.70;99.90;;;;;;5071971;28;20071;-80
2022/11/17 03:24:11;;;;;;;1999.90;999.90;;;14.70;99.90;;;;;;5071636;28;20442;-74
2022/11/17 03:26:46;;;;;;;1999.90;999.90;;;14.70;99.90;;;;;;5072092;28;20369;-83
2022/11/17 03:29:16;;;;;;;1999.90;999.90;;;14.80;99.90;;;;;;5071893;28;20028;-81
2022/11/17 03:31:45;;;;;;;1999.90;999.90;;;14.80;99.90;;;;;;5072204;28;20025;-81
2022/11/17 03:34:14;;;;;;;1999.90;999.90;;;14.70;99.90;;;;;;5072269;28;20029;-74
2022/11/17 03:36:46;;;;;;;1999.90;999.90;;;14.70;99.90;;;;;;5072143;28;20021;-74
2022/11/17 03:39:13;;;;;;;1999.90;999.90;;;14.70;99.90;;;;;;5071507;28;20391;-80
2022/11/17 03:41:43;;;;;;;1999.90;999.90;;;14.80;99.90;;;;;;5072130;28;20449;-83
2022/11/17 03:44:11;;;;;;;1999.90;999.90;;;14.80;99.90;;;;;;5077765;28;20498;-79
2022/11/17 03:46:40;;;;;;;1999.90;999.90;;;14.80;99.90;;;;;;5092339;28;20589;-74
2022/11/17 03:49:19;;;;;;;1999.90;999.90;;;14.90;99.90;;;;;;5091863;28;20029;-81
2022/11/17 03:51:45;;;;;;;1999.90;999.90;;;14.90;99.90;;;;;;5092280;28;20028;-81
2022/11/17 03:54:13;;;;;;;1999.90;999.90;;;15.00;99.90;;;;;;5091946;28;20115;-80
2022/11/17 03:56:57;;;;;;;1999.90;999.90;;;14.90;99.90;;;;;;5092034;28;20020;-84
2022/11/17 03:59:41;;;;;;;1999.90;999.90;;;14.90;99.90;;;;;;5092487;28;20046;-73
2022/11/17 04:02:12;;;;;;;1999.90;999.90;;;14.80;99.90;;;;;;5077536;28;20044;-80
2022/11/17 04:07:21;;;;;;;1999.90;999.90;;;14.50;99.90;;;;;;5071431;28;20082;-80
2022/11/17 04:09:47;;;;;;;1999.90;999.90;;;14.60;99.90;;;;;;5071618;28;20434;-81
2022/11/17 04:17:40;;;;;;;1999.90;999.90;;;14.70;99.90;;;;;;5065481;28;20608;-75
2022/11/17 04:20:07;;;;;;;1999.90;999.90;;;14.90;99.90;;;;;;5071641;28;20020;-80
2022/11/17 04:22:32;;;;;;;1999.90;999.90;;;14.80;99.90;;;;;;5072147;28;20592;-80
2022/11/17 04:24:58;;;;;;;1999.90;999.90;;;14.80;99.90;;;;;;5074945;28;20111;-81
2022/11/17 04:30:08;;;;;;;1999.90;999.90;;;14.80;99.90;;;;;;5075142;28;20490;-74
2022/11/17 04:32:34;;;;;;;1999.90;999.90;;;14.70;99.90;;;;;;5075231;28;20056;-82
2022/11/17 04:35:00;;;;;;;1999.90;999.90;;;14.70;99.90;;;;;;5074842;28;20105;-81
2022/11/17 04:37:25;;;;;;;1999.90;999.90;;;14.80;99.90;;;;;;5075138;28;20040;-80
2022/11/17 04:39:51;;;;;;;1999.90;999.90;;;14.70;99.90;;;;;;5073975;28;20024;-80
2022/11/17 04:42:16;;;;;;;1999.90;999.90;;;14.70;99.90;;;;;;5075296;28;20103;-74
2022/11/17 04:44:42;;;;;;;1999.90;999.90;;;14.50;99.90;;;;;;5085254;28;20418;-74
2022/11/17 04:47:08;;;;;;;1999.90;999.90;;;14.40;99.90;;;;;;5093813;28;20031;-77
2022/11/17 04:49:33;;;;;;;1999.90;999.90;;;14.40;99.90;;;;;;5094769;28;20492;-73
2022/11/17 04:51:59;;;;;;;1999.90;999.90;;;14.30;99.90;;;;;;5095698;28;20032;-81
2022/11/17 04:54:25;;;;;;;1999.90;999.90;;;14.30;99.90;;;;;;5094910;28;20074;-80
2022/11/17 04:56:52;;;;;;;1999.90;999.90;;;14.30;99.90;;;;;;5080066;28;20090;-81
2022/11/17 04:59:17;;;;;;;1999.90;999.90;;;14.30;99.90;;;;;;5074469;28;20136;-83
2022/11/17 05:01:43;;;;;;;1999.90;999.90;;;14.30;99.90;;;;;;5074350;28;20474;-81
2022/11/17 05:04:11;;;;;;;1999.90;999.90;;;14.40;99.90;;;;;;5074366;28;20052;-80
2022/11/17 05:06:46;;;;;;;1999.90;999.90;;;14.40;99.90;;;;;;5073883;28;20033;-73
2022/11/17 05:09:14;;;;;;;1999.90;999.90;;;14.30;99.90;;;;;;5074010;28;20071;-82
2022/11/17 05:14:25;;;;;;;1999.90;999.90;;;14.30;99.90;;;;;;5054514;28;20132;-80
2022/11/17 05:17:04;;;;;;;1999.90;999.90;;;14.30;99.90;;;;;;5060427;28;20491;-81
2022/11/17 05:19:32;;;;;;;1999.90;999.90;;;14.30;99.90;;;;;;5074242;28;20407;-73
2022/11/17 05:21:57;;;;;;;1999.90;999.90;;;14.40;99.90;;;;;;5072496;28;20055;-73
2022/11/17 05:24:23;;;;;;;1999.90;999.90;;;14.40;99.90;;;;;;5073869;28;20021;-80
2022/11/17 05:26:49;;;;;;;1999.90;999.90;;;14.40;99.90;;;;;;5074025;28;20020;-82
2022/11/17 05:29:17;;;;;;;1999.90;999.90;;;14.50;99.90;;;;;;5073329;28;20071;-82
2022/11/17 05:31:43;;;;;;;1999.90;999.90;;;14.60;99.90;;;;;;5073402;28;20024;-74
2022/11/17 05:34:11;;;;;;;1999.90;999.90;;;14.60;99.90;;;;;;5072301;28;20032;-80
2022/11/17 05:36:38;;;;;;;1999.90;999.90;;;14.70;99.90;;;;;;5072345;28;20020;-74
2022/11/17 05:39:05;;;;;;;1999.90;999.90;;;14.70;99.90;;;;;;5073223;28;20058;-83
2022/11/17 05:41:31;;;;;;;1999.90;999.90;;;14.70;99.90;;;;;;5073615;28;20036;-83
2022/11/17 05:43:57;;;;;;;1999.90;999.90;;;14.70;99.90;;;;;;5077036;28;20553;-82
2022/11/17 05:46:24;;;;;;;1999.90;999.90;;;14.50;99.90;;;;;;5091434;28;20024;-74
2022/11/17 05:48:51;;;;;;;1999.90;999.90;;;14.60;99.90;;;;;;5073305;28;20016;-81
2022/11/17 05:51:19;;;;;;;1999.90;999.90;;;14.60;99.90;;;;;;5073502;28;20086;-81
2022/11/17 05:53:45;;;;;;;1999.90;999.90;;;14.60;99.90;;;;;;5072964;28;20395;-80
2022/11/17 05:56:39;;;;;;;1999.90;999.90;;;14.60;99.90;;;;;;5073414;28;20028;-74
2022/11/17 05:59:20;;;;;;;1999.90;999.90;;;14.60;99.90;;;;;;5071925;28;20028;-80
2022/11/17 06:01:59;;;;;;;1999.90;999.90;;;14.70;99.90;;;;;;5072796;28;20053;-80
2022/11/17 06:04:25;;;;;;;1999.90;999.90;;;14.70;99.90;;;;;;5073349;28;20387;-83
2022/11/17 06:06:50;;;;;;;1999.90;999.90;;;14.70;99.90;;;;;;5073402;28;20021;-79
2022/11/17 06:09:16;;;;;;;1999.90;999.90;;;14.70;99.90;;;;;;5072203;28;20023;-75
2022/11/17 06:11:42;;;;;;;1999.90;999.90;;;14.70;99.90;;;;;;5068399;28;20025;-81
2022/11/17 06:14:07;;;;;;;1999.90;999.90;;;14.80;99.90;;;;;;5053043;28;20070;-80
2022/11/17 06:16:39;;;;;;;1999.90;999.90;;;14.80;99.90;;;;;;5071456;28;20037;-73
2022/11/17 06:19:12;;;;;;;1999.90;999.90;;;14.80;99.90;;;;;;5072846;28;20111;-81
2022/11/17 06:21:37;;;;;;;1999.90;999.90;;;14.60;99.90;;;;;;5072531;28;20032;-83
2022/11/17 06:24:06;;;;;;;1999.90;999.90;;;14.30;99.90;;;;;;5072577;28;20042;-73
2022/11/17 06:26:32;;;;;;;1999.90;999.90;;;14.00;99.90;;;;;;5071475;28;20434;-74
2022/11/17 06:28:58;;;;;;;1999.90;999.90;;;13.70;99.90;;;;;;5072598;28;20040;-80
2022/11/17 06:31:26;;;;;;;1999.90;999.90;;;13.30;99.90;;;;;;5071446;28;20083;-81
2022/11/17 06:33:51;;;;;;;1999.90;999.90;;;13.30;99.90;;;;;;5072688;28;20399;-83
2022/11/17 06:36:17;;;;;;;1999.90;999.90;;;13.30;99.90;;;;;;5062120;28;20032;-75
2022/11/17 06:38:43;;;;;;;1999.90;999.90;;;13.20;99.90;;;;;;5055618;28;20399;-73
2022/11/17 06:41:08;;;;;;;1999.90;999.90;;;13.20;99.90;;;;;;5071211;28;20032;-73
2022/11/17 06:43:34;;;;;;;1999.90;999.90;;;13.20;99.90;;;;;;5071550;28;20035;-76
2022/11/17 06:46:04;;;;;;;1999.90;999.90;;;13.20;99.90;;;;;;5069804;28;20020;-78
2022/11/17 06:48:34;;;;;;;1999.90;999.90;;;13.20;99.90;;;;;;5073381;28;20031;-73
2022/11/17 06:51:00;;;;;;;1999.90;999.90;;;13.30;99.90;;;;;;5072669;28;20095;-80
2022/11/17 06:53:27;;;;;;;1999.90;999.90;;;13.50;99.90;;;;;;5071887;28;20072;-73
2022/11/17 06:56:04;;;;;;;1999.90;999.90;;;13.60;99.90;;;;;;5072931;28;20048;-80
2022/11/17 06:58:30;;;;;;;1999.90;999.90;;;13.70;99.90;;;;;;5072708;28;20024;-73
2022/11/17 07:01:16;;;;;;;1999.90;999.90;;;13.70;99.90;;;;;;5072274;28;20073;-79
2022/11/17 07:03:42;;;;;;;1999.90;999.90;;;13.80;99.90;;;;;;5070857;28;20059;-73
2022/11/17 07:06:09;;;;;;;1999.90;999.90;;;13.80;99.90;;;;;;5071414;28;20609;-73
2022/11/17 07:08:36;;;;;;;1999.90;999.90;;;13.80;99.90;;;;;;5063889;28;20111;-75
2022/11/17 07:11:13;;;;;;;1999.90;999.90;;;13.80;99.90;;;;;;5059450;28;20028;-80
2022/11/17 07:13:39;;;;;;;1999.90;999.90;;;13.80;99.90;;;;;;5070350;28;20029;-74
2022/11/17 07:16:14;;;;;;;1999.90;999.90;;;13.90;99.90;;;;;;5084510;28;20047;-74
2022/11/17 07:18:40;;;;;;;1999.90;999.90;;;13.90;99.90;;;;;;5070839;28;20443;-74
2022/11/17 07:21:09;;;;;;;1999.90;999.90;;;13.90;99.90;;;;;;5090399;28;20105;-74
2022/11/17 07:23:35;;;;;;;1999.90;999.90;;;14.00;99.90;;;;;;5078919;28;20081;-78
2022/11/17 07:26:02;;;;;;;1999.90;999.90;;;14.00;99.90;;;;;;5062768;28;20043;-80
2022/11/17 07:28:28;;;;;;;1999.90;999.90;;;14.00;99.90;;;;;;5064880;28;20028;-75
2022/11/17 07:30:54;;;;;;;1999.90;999.90;;;14.10;99.90;;;;;;5072324;28;20044;-75
2022/11/17 07:33:21;;;;;;;1999.90;999.90;;;14.10;99.90;;;;;;5057505;28;20029;-75
2022/11/17 07:35:47;;;;;;;1999.90;999.90;;;14.20;99.90;;;;;;5069935;28;20086;-80
2022/11/17 07:38:13;;;;;;;1999.90;999.90;;;14.20;99.90;;;;;;5061874;28;20048;-77
2022/11/17 07:40:39;;;;;;;1999.90;999.90;;;14.30;99.90;;;;;;5068177;28;20040;-74
2022/11/17 07:43:05;;;;;;;1999.90;999.90;;;14.30;99.90;;;;;;5061939;28;20060;-74
2022/11/17 07:45:31;;;;;;;1999.90;999.90;;;14.20;99.90;;;;;;5066635;28;20068;-74
2022/11/17 07:48:03;;;;;;;1999.90;999.90;;;14.20;99.90;;;;;;5068641;28;20028;-75
2022/11/17 07:50:29;;;;;;;1999.90;999.90;;;14.30;99.90;;;;;;5067048;28;20380;-80
2022/11/17 07:52:56;;;;;;;1999.90;999.90;;;14.40;99.90;;;;;;5066568;28;20107;-80
2022/11/17 07:55:23;;;;;;;1999.90;999.90;;;14.50;99.90;;;;;;5070109;28;20033;-76
2022/11/17 07:57:59;;;;;;;1999.90;999.90;;;14.50;99.90;;;;;;5082712;28;20422;-79
2022/11/17 08:00:27;;;;;;;1999.90;999.90;;;14.50;99.90;;;;;;5067714;28;20024;-81
2022/11/17 08:02:52;;;;;;;1999.90;999.90;;;14.60;99.90;;;;;;5066374;28;20384;-78
2022/11/17 08:05:19;;;;;;;1999.90;999.90;;;14.60;99.90;;;;;;5072212;28;20036;-75
2022/11/17 08:07:45;;;;;;;1999.90;999.90;;;14.60;99.90;;;;;;5067934;28;20074;-75
2022/11/17 08:10:12;;;;;;;1999.90;999.90;;;14.50;99.90;;;;;;5074407;28;20048;-76
2022/11/17 08:12:38;;;;;;;1999.90;999.90;;;14.70;99.90;;;;;;5069841;28;20037;-82
2022/11/17 08:15:04;;;;;;;1999.90;999.90;;;14.80;99.90;;;;;;5065888;28;20055;-79
2022/11/17 08:17:30;;;;;;;1999.90;999.90;;;15.00;99.90;;;;;;5057604;28;20127;-79
2022/11/17 08:19:56;;;;;;;1999.90;999.90;;;15.10;99.90;;;;;;5062086;28;20017;-75
2022/11/17 08:22:22;;;;;;;1999.90;999.90;;;15.10;99.90;;;;;;5057575;28;20082;-75
2022/11/17 08:24:48;;;;;;;1999.90;999.90;;;15.10;99.90;;;;;;5075718;28;20069;-75
2022/11/17 08:27:13;;;;;;;1999.90;999.90;;;15.00;99.90;;;;;;5076469;28;20430;-77
2022/11/17 08:29:39;;;;;;;1999.90;999.90;;;15.00;99.90;;;;;;5069575;28;20025;-79
2022/11/17 08:32:04;;;;;;;1999.90;999.90;;;15.00;99.90;;;;;;5073316;28;20052;-81
2022/11/17 08:34:30;;;;;;;1999.90;999.90;;;15.10;99.90;;;;;;5069758;28;20036;-77
2022/11/17 08:36:56;;;;;;;1999.90;999.90;;;15.10;99.90;;;;;;5072289;28;20032;-80
2022/11/17 08:39:21;;;;;;;1999.90;999.90;;;15.20;99.90;;;;;;5078372;28;20070;-81
2022/11/17 08:41:47;;;;;;;1999.90;999.90;;;15.40;99.90;;;;;;5074529;28;20047;-80
2022/11/17 08:44:12;;;;;;;1999.90;999.90;;;15.60;99.90;;;;;;5073228;28;20033;-81
2022/11/17 08:46:38;;;;;;;1999.90;999.90;;;15.50;99.90;;;;;;5069981;28;20071;-77
2022/11/17 08:49:04;;;;;;;1999.90;999.90;;;15.40;99.90;;;;;;5076823;28;20073;-74
2022/11/17 08:51:30;;;;;;;1999.90;999.90;;;15.10;99.90;;;;;;5070948;28;20039;-78
2022/11/17 08:53:57;;;;;;;1999.90;999.90;;;14.30;99.90;;;;;;5069738;28;20032;-79
2022/11/17 08:56:22;;;;;;;1999.90;999.90;;;13.70;99.90;;;;;;5067336;28;20044;-81
2022/11/17 08:58:48;;;;;;;1999.90;999.90;;;13.20;99.90;;;;;;5065343;28;20031;-75
2022/11/17 09:01:15;;;;;;;1999.90;999.90;;;13.00;99.90;;;;;;5064084;28;20020;-74
2022/11/17 09:03:45;;;;;;;1999.90;999.90;;;12.80;99.90;;;;;;5066935;28;20049;-81
2022/11/17 09:06:13;;;;;;;1999.90;999.90;;;12.80;99.90;;;;;;5070252;28;20123;-76
2022/11/17 09:08:38;;;;;;;1999.90;999.90;;;12.80;99.90;;;;;;5067903;28;20376;-77
2022/11/17 09:11:06;;;;;;;1999.90;999.90;;;13.00;99.90;;;;;;5071647;28;20044;-76
2022/11/17 09:13:32;;;;;;;1999.90;999.90;;;13.20;99.90;;;;;;5069319;28;20498;-74
2022/11/17 09:16:06;;;;;;;1999.90;999.90;;;13.40;99.90;;;;;;5067445;28;20070;-74
2022/11/17 09:18:33;;;;;;;1999.90;999.90;;;13.60;99.90;;;;;;5074116;28;20036;-78
2022/11/17 09:21:00;;;;;;;1999.90;999.90;;;13.90;99.90;;;;;;5075413;28;20093;-78
2022/11/17 09:23:27;;;;;;;1999.90;999.90;;;14.10;99.90;;;;;;5068760;28;20604;-78
2022/11/17 09:25:52;;;;;;;1999.90;999.90;;;14.30;99.90;;;;;;5070624;28;20099;-76
2022/11/17 09:28:18;;;;;;;1999.90;999.90;;;14.50;99.90;;;;;;5071145;28;20558;-75
2022/11/17 09:30:43;;;;;;;1999.90;999.90;;;14.60;99.90;;;;;;5071683;28;20033;-77
2022/11/17 09:33:09;;;;;;;1999.90;999.90;;;14.60;99.90;;;;;;5065301;28;20024;-78
2022/11/17 09:35:35;;;;;;;1999.90;999.90;;;14.70;99.90;;;;;;5086175;28;20032;-80
2022/11/17 09:38:01;;;;;;;1999.90;999.90;;;14.60;99.90;;;;;;5091410;28;20402;-74
2022/11/17 09:40:27;;;;;;;1999.90;999.90;;;14.60;99.90;;;;;;5089807;28;20031;-75
2022/11/17 09:42:53;;;;;;;1999.90;999.90;;;14.60;99.90;;;;;;5070563;28;20024;-74
2022/11/17 09:45:21;;;;;;;1999.90;999.90;;;14.60;99.90;;;;;;5069086;28;20028;-79
2022/11/17 09:48:10;;;;;;;1999.90;999.90;;;14.60;99.90;;;;;;5078079;28;20039;-78
2022/11/17 09:50:38;;;;;;;1999.90;999.90;;;14.70;99.90;;;;;;5035044;28;20052;-76
2022/11/17 09:53:28;;;;;;;1999.90;999.90;;;14.60;99.90;;;;;;5067741;28;20395;-75
2022/11/17 09:56:00;;;;;;;1999.90;999.90;;;14.60;99.90;;;;;;5072134;28;20020;-78
2022/11/17 09:58:42;;;;;;;1999.90;999.90;;;14.50;99.90;;;;;;5069682;28;20074;-75
2022/11/17 10:01:13;;;;;;;1999.90;999.90;;;14.30;99.90;;;;;;5065262;28;20036;-80
2022/11/17 10:03:40;;;;;;;1999.90;999.90;;;14.20;99.90;;;;;;5061483;28;20060;-75
2022/11/17 10:06:13;;;;;;;1999.90;999.90;;;14.10;99.90;;;;;;5067479;28;20062;-75
2022/11/17 10:08:38;;;;;;;1999.90;999.90;;;14.20;99.90;;;;;;5068963;28;20031;-79
2022/11/17 10:11:32;;;;;;;1999.90;999.90;;;14.20;99.90;;;;;;5061428;28;20419;-83
2022/11/17 10:14:17;;;;;;;1999.90;999.90;;;14.20;99.90;;;;;;5065883;28;20055;-81
2022/11/17 10:16:54;;;;;;;1999.90;999.90;;;14.20;99.90;;;;;;5061606;28;20028;-76
2022/11/17 10:19:26;;;;;;;1999.90;999.90;;;14.20;99.90;;;;;;5068208;28;20067;-75
2022/11/17 10:22:01;;;;;;;1999.90;999.90;;;14.30;99.90;;;;;;5069518;28;20399;-82
2022/11/17 10:24:40;;;;;;;1999.90;999.90;;;14.30;99.90;;;;;;5058860;28;20040;-81
2022/11/17 10:27:31;;;;;;;1999.90;999.90;;;14.20;99.90;;;;;;5070935;28;20074;-76
2022/11/17 10:29:59;;;;;;;1999.90;999.90;;;14.40;99.90;;;;;;5056348;28;20071;-75
2022/11/17 10:32:30;;;;;;;1999.90;999.90;;;14.50;99.90;;;;;;5083941;28;20031;-83
2022/11/17 10:35:16;;;;;;;1999.90;999.90;;;14.70;99.90;;;;;;5082665;28;20036;-84
2022/11/17 10:37:51;;;;;;;1999.90;999.90;;;14.70;99.90;;;;;;5075580;28;20054;-83
2022/11/17 10:40:20;;;;;;;1999.90;999.90;;;14.80;99.90;;;;;;5055176;28;20029;-82
2022/11/17 10:42:58;;;;;;;1999.90;999.90;;;14.90;99.90;;;;;;5068304;28;20024;-75
2022/11/17 10:45:24;;;;;;;1999.90;999.90;;;15.00;99.90;;;;;;5071787;28;20074;-75
2022/11/17 10:47:50;;;;;;;1999.90;999.90;;;15.10;99.90;;;;;;5065817;28;20020;-84
2022/11/17 10:50:26;;;;;;;1999.90;999.90;;;15.10;99.90;;;;;;5058395;28;20035;-83
2022/11/17 10:52:53;;;;;;;1999.90;999.90;;;15.20;99.90;;;;;;5062642;28;20032;-81
2022/11/17 10:55:30;;;;;;;1999.90;999.90;;;14.90;99.90;;;;;;5057984;28;20086;-76
2022/11/17 10:58:03;;;;;;;1999.90;999.90;;;14.50;99.90;;;;;;5066254;28;20025;-75
2022/11/17 11:00:35;;;;;;;1999.90;999.90;;;14.00;99.90;;;;;;5059988;28;20033;-76
2022/11/17 11:03:21;;;;;;;1999.90;999.90;;;13.80;99.90;;;;;;5058307;28;20515;-82
2022/11/17 11:05:56;;;;;;;1999.90;999.90;;;13.90;99.90;;;;;;5067260;28;20518;-82
2022/11/17 11:08:26;;;;;;;1999.90;999.90;;;14.10;99.90;;;;;;5071686;28;20107;-75
2022/11/17 11:10:54;;;;;;;1999.90;999.90;;;14.20;99.90;;;;;;5061467;28;20025;-76
2022/11/17 11:13:43;;;;;;;1999.90;999.90;;;14.30;99.90;;;;;;5066415;28;20051;-75
2022/11/17 11:16:10;;;;;;;1999.90;999.90;;;14.50;99.90;;;;;;5063325;28;20031;-82
2022/11/17 11:18:37;;;;;;;1999.90;999.90;;;14.60;99.90;;;;;;5061459;28;20029;-82
2022/11/17 11:21:38;;;;;;;1999.90;999.90;;;14.60;99.90;;;;;;5059996;28;20024;-85
2022/11/17 11:24:33;;;;;;;1999.90;999.90;;;14.60;99.90;;;;;;5000028;28;20929;-75
2022/11/17 11:27:20;;;;;;;1999.90;999.90;;;14.60;99.90;;;;;;5061309;28;20108;-81
2022/11/17 11:30:05;;;;;;;1999.90;999.90;;;14.80;99.90;;;;;;5065408;28;20428;-78
2022/11/17 11:32:52;;;;;;;1999.90;999.90;;;14.90;99.90;;;;;;5065364;28;20025;-81
2022/11/17 11:35:30;;;;;;;1999.90;999.90;;;14.90;99.90;;;;;;5061399;28;20032;-75
2022/11/17 11:38:04;;;;;;;1999.90;999.90;;;14.90;99.90;;;;;;5057228;28;20484;-78
2022/11/17 11:41:02;;;;;;;1999.90;999.90;;;15.00;99.90;;;;;;5062266;28;20109;-84
2022/11/17 11:43:45;;;;;;;1999.90;999.90;;;15.10;99.90;;;;;;5045148;28;20123;-74
2022/11/17 11:46:46;;;;;;;1999.90;999.90;;;15.20;99.90;;;;;;5057529;28;20056;-84
2022/11/17 11:49:35;;;;;;;1999.90;999.90;;;15.30;99.90;;;;;;5071781;28;20024;-76
2022/11/17 11:52:05;;;;;;;1999.90;999.90;;;15.40;99.90;;;;;;5064140;28;20035;-75
2022/11/17 11:54:33;;;;;;;1999.90;999.90;;;15.50;99.90;;;;;;5056356;28;20086;-77
2022/11/17 11:56:59;;;;;;;1999.90;999.90;;;15.60;99.90;;;;;;5064524;28;20032;-82
2022/11/17 12:00:01;;;;;;;1999.90;999.90;;;15.80;99.90;;;;;;5056355;28;20040;-79
2022/11/17 12:02:51;;;;;;;1999.90;999.90;;;15.90;99.90;;;;;;5058613;28;20064;-76
2022/11/17 12:05:45;;;;;;;1999.90;999.90;;;15.70;99.90;;;;;;5072126;28;20036;-76
2022/11/17 12:08:16;;;;;;;1999.90;999.90;;;15.90;99.90;;;;;;5067947;28;20031;-82
2022/11/17 12:10:52;;;;;;;1999.90;999.90;;;16.00;99.90;;;;;;5065121;28;20674;-81
2022/11/17 12:13:21;;;;;;;1999.90;999.90;;;16.00;99.90;;;;;;5074043;28;20035;-82
2022/11/17 12:15:47;;;;;;;1999.90;999.90;;;15.80;99.90;;;;;;5070929;28;20025;-80
2022/11/17 12:18:28;;;;;;;1999.90;999.90;;;15.60;99.90;;;;;;5071456;28;20446;-76
2022/11/17 12:21:00;;;;;;;1999.90;999.90;;;15.70;99.90;;;;;;5070827;28;20349;-82
2022/11/17 12:23:47;;;;;;;1999.90;999.90;;;15.80;99.90;;;;;;5066644;28;20028;-80
2022/11/17 12:26:21;;;;;;;1999.90;999.90;;;15.90;99.90;;;;;;5072368;28;20271;-77
2022/11/17 12:28:47;;;;;;;1999.90;999.90;;;16.00;99.90;;;;;;5068382;28;20454;-75
2022/11/17 12:31:42;;;;;;;1999.90;999.90;;;15.70;99.90;;;;;;5065809;28;20075;-82
2022/11/17 12:34:22;;;;;;;1999.90;999.90;;;15.10;99.90;;;;;;5066836;28;20037;-83
2022/11/17 12:37:16;;;;;;;1999.90;999.90;;;14.70;99.90;;;;;;5062857;28;20033;-83
2022/11/17 12:40:00;;;;;;;1999.90;999.90;;;14.30;99.90;;;;;;5068145;28;20073;-74
2022/11/17 12:42:35;;;;;;;1999.90;999.90;;;14.00;99.90;;;;;;5070954;28;20024;-84